Flight Track Log - Related Links

Times and Time Zones

All times are in EDT time to prevent confusion due to time zone crossing. See the AMF1062 flight status page for this flight to view local times or setup timezone preferences in your user account.

Time Position Orientation Groundspeed Altitude Reporting Facility
EDT Latitude Longitude Course Direction KTS MPH feet Rate Location/Type
Fri 07:08:00 PM 43.5081 -116.2400 132° Southeast 190 219 5,200  Level Salt Lake Center
Fri 07:09:02 PM 43.4764 -116.1744 124° Southeast 198 228 6,300 968 Climbing Salt Lake Center
Fri 07:10:04 PM 43.4467 -116.1039 120° Southeast 202 232 7,200 976 Climbing Salt Lake Center
Fri 07:11:05 PM 43.4158 -116.0331 121° Southeast 206 237 8,300 927 Climbing Salt Lake Center
Fri 07:12:00 PM 43.3717 -115.9051 144° Southeast  Level FlightAware Approximate
Fri 07:12:07 PM 43.3864 -115.9667 121° Southeast 210 242 9,100  Level Salt Lake Center
Fri 07:13:00 PM 43.3311 -115.8466 132° Southeast  Level FlightAware Approximate
Fri 07:13:09 PM 43.3542 -115.8900 120° Southeast 220 253 9,500  Level Salt Lake Center
Fri 07:14:11 PM 43.3106 -115.8203 131° Southeast 231 266 9,500  Level Salt Lake Center
Fri 07:15:12 PM 43.2656 -115.7514 132° Southeast 232 267 9,500 -49 Level Salt Lake Center
Fri 07:16:14 PM 43.2256 -115.6861 130° Southeast 230 265 9,400 -48 Descending Salt Lake Center
Fri 07:17:16 PM 43.1856 -115.6144 127° Southeast 227 261 9,400  Level Salt Lake Center
Fri 07:18:18 PM 43.1450 -115.5419 127° Southeast 229 264 9,400  Level Salt Lake Center
Fri 07:19:19 PM 43.1014 -115.4733 131° Southeast 227 261 9,400  Level Salt Lake Center
Fri 07:20:21 PM 43.0622 -115.4089 130° Southeast 227 261 9,400 48 Level Salt Lake Center
Fri 07:21:23 PM 43.0189 -115.3386 130° Southeast 233 268 9,500 48 Climbing Salt Lake Center
Fri 07:22:25 PM 42.9786 -115.2681 128° Southeast 228 262 9,500  Level Salt Lake Center
Fri 07:23:26 PM 42.9378 -115.1967 128° Southeast 227 261 9,500  Level Salt Lake Center
Fri 07:24:28 PM 42.9008 -115.1311 128° Southeast 227 261 9,500  Level Salt Lake Center
Fri 07:25:30 PM 42.8583 -115.0619 130° Southeast 228 262 9,500 48 Level Salt Lake Center
Fri 07:26:32 PM 42.8153 -114.9931 130° Southeast 228 262 9,600  Climbing Salt Lake Center
Fri 07:27:33 PM 42.7700 -114.9278 133° Southeast 228 262 9,500 -49 Descending Salt Lake Center
Fri 07:28:35 PM 42.7256 -114.8606 132° Southeast 228 262 9,500 48 Level Salt Lake Center
Fri 07:29:37 PM 42.6864 -114.7975 130° Southeast 227 261 9,600  Climbing Salt Lake Center
Fri 07:30:39 PM 42.6428 -114.7275 130° Southeast 231 266 9,500 -48 Descending Salt Lake Center
Fri 07:31:41 PM 42.6008 -114.6567 129° Southeast 231 266 9,500 49 Level Salt Lake Center
Fri 07:32:42 PM 42.5547 -114.5903 133° Southeast 231 266 9,600 49 Climbing Salt Lake Center
Fri 07:33:44 PM 42.5061 -114.5267 136° Southeast 230 265 9,600  Level Salt Lake Center
Fri 07:34:46 PM 42.4683 -114.4528 125° Southeast 230 265 9,600 -48 Level Salt Lake Center
Fri 07:35:48 PM 42.4436 -114.3747 113° Southeast 233 268 9,500 -48 Descending Salt Lake Center
Fri 07:36:50 PM 42.4128 -114.2953 118° Southeast 230 265 9,500 48 Level Salt Lake Center
Fri 07:37:52 PM 42.3867 -114.2111 113° Southeast 231 266 9,600 49 Climbing Salt Lake Center
Fri 07:38:53 PM 42.3650 -114.1444 114° Southeast 231 266 9,600 -13 Level Salt Lake Center
Fri 07:40:00 PM 42.3315 -114.0631 119° Southeast  Level FlightAware Approximate
Fri 07:45:29 PM 42.1561 -113.6375 116° Southeast 229 264 9,500  Level Salt Lake Center
Fri 07:46:31 PM 42.1353 -113.5578 109° East 227 261 9,500  Level Salt Lake Center
Fri 07:47:00 PM 42.1368 -113.5431 115° Southeast  Level FlightAware Approximate
Fri 07:47:33 PM 42.1156 -113.4772 108° East 226 260 9,500  Level Salt Lake Center
Fri 07:48:00 PM 42.1097 -113.4684 116° Southeast  Level FlightAware Approximate
Fri 07:48:34 PM 42.0956 -113.3983 109° East 225 259 9,600  Level Salt Lake Center
Fri 07:49:00 PM 42.0825 -113.3939 116° Southeast  Level FlightAware Approximate
Fri 07:49:36 PM 42.0739 -113.3197 110° East 225 259 9,600  Level Salt Lake Center
Fri 07:50:00 PM 42.0553 -113.3194 116° Southeast  Level FlightAware Approximate
Fri 07:50:38 PM 42.0467 -113.2253 111° Southeast 226 260 9,500  Level Salt Lake Center
Fri 07:51:39 PM 42.0208 -113.1519 115° Southeast 223 257 9,600  Climbing Salt Lake Center
Fri 07:52:41 PM 41.9772 -113.0919 134° Southeast 223 257 9,500  Descending Salt Lake Center
Fri 07:53:43 PM 41.9289 -113.0419 142° Southeast 220 253 9,600  Climbing Salt Lake Center
Fri 07:54:45 PM 41.8847 -112.9822 135° Southeast 222 255 9,500  Descending Salt Lake Center
Fri 07:55:46 PM 41.8417 -112.9211 133° Southeast 224 258 9,600  Climbing Salt Lake Center
Fri 07:56:48 PM 41.7986 -112.8606 134° Southeast 225 259 9,500 -48 Descending Salt Lake Center
Fri 07:57:50 PM 41.7497 -112.7831 130° Southeast 226 260 9,500  Level Salt Lake Center
Fri 07:58:51 PM 41.7053 -112.7211 134° Southeast 229 264 9,500  Level Salt Lake Center
Fri 07:59:53 PM 41.6608 -112.6614 135° Southeast 228 262 9,500  Level Salt Lake Center
Fri 08:00:26 PM 41.6378 -112.6222 128° Southeast 224 258 9,500  Level Salt Lake Center
Fri 08:00:55 PM 41.6142 -112.6050 151° Southeast 226 260 9,500  Level Salt Lake Center
Fri 08:01:20 PM 41.5939 -112.5711 129° Southeast 227 261 9,500 97 Level Salt Lake Center
Fri 08:01:57 PM 41.5672 -112.5486 148° Southeast 226 260 9,600  Climbing Salt Lake Center
Fri 08:02:22 PM 41.5522 -112.5219 127° Southeast 226 260 9,500  Descending Salt Lake Center
Fri 08:02:58 PM 41.5197 -112.4939 147° Southeast 226 260 9,600  Climbing Salt Lake Center
Fri 08:03:22 PM 41.5017 -112.4703 136° Southeast 228 262 9,500 -97 Descending Salt Lake Center
Fri 08:04:00 PM 41.4619 -112.4586 168° South 226 260 9,500  Level Salt Lake Center
Fri 08:04:23 PM 41.4353 -112.4383 150° Southeast 227 261 9,500 97 Level Salt Lake Center
Fri 08:05:02 PM 41.3931 -112.4197 162° South 225 259 9,600  Climbing Salt Lake Center
Fri 08:05:17 PM 41.3822 -112.4075 140° Southeast 224 258 9,500 -98 Descending Salt Lake Center
Fri 08:06:03 PM 41.3361 -112.3861 161° South 225 259 9,500  Level Salt Lake Center
Fri 08:06:18 PM 41.3244 -112.3756 146° Southeast 224 258 9,500  Level Salt Lake Center
Fri 08:07:05 PM 41.2797 -112.3536 160° South 222 255 9,500  Level Salt Lake Center
Fri 08:07:25 PM 41.2592 -112.3378 150° Southeast 225 259 9,500  Level Salt Lake Center
Fri 08:08:07 PM 41.2222 -112.3194 160° South 226 260 9,500 98 Level Salt Lake Center
Fri 08:08:26 PM 41.2033 -112.3053 151° Southeast 225 259 9,600 984 Climbing Salt Lake Center
Fri 08:09:08 PM 41.1675 -112.2853 157° South 219 252 10,500 1,400 Climbing Salt Lake Center
Fri 08:09:26 PM 41.1522 -112.2742 151° Southeast 198 228 11,000 484 Climbing Salt Lake Center
Fri 08:10:10 PM 41.1194 -112.2539 155° Southeast 200 230 11,000  Level Salt Lake Center
Fri 08:10:27 PM 41.1006 -112.2403 151° Southeast 213 245 11,000  Level Salt Lake Center
Fri 08:11:12 PM 41.0647 -112.2197 157° South 218 251 11,000  Level Salt Lake Center
Fri 08:11:28 PM 41.0444 -112.2053 152° Southeast 221 254 11,000  Level Salt Lake Center
Fri 08:12:14 PM 40.9972 -112.1775 156° South 225 259 11,000  Level Salt Lake Center
Fri 08:12:29 PM 40.9836 -112.1689 154° Southeast 225 259 11,000  Level Salt Lake Center
Fri 08:13:15 PM 40.9419 -112.1428 155° Southeast 223 257 11,000  Level Salt Lake Center
Fri 08:13:30 PM 40.9272 -112.1342 156° South 223 257 11,000  Level Salt Lake Center
Fri 08:14:17 PM 40.8856 -112.1097 156° South 224 258 11,000  Level Salt Lake Center
Fri 08:15:18 PM 40.8244 -112.1006 174° South 221 254 11,000 -341 Level Salt Lake Center
Fri 08:16:20 PM 40.7639 -112.0911 173° South 219 252 10,300 -1,403 Descending Salt Lake Center
Fri 08:17:22 PM 40.7078 -112.0675 162° South 223 257 8,100 -2,188 Descending Salt Lake Center
Fri 08:17:45 PM 40.7028 -112.0317 100° East 209 241 7,200 -1,672 Descending Salt Lake Center
Fri 08:18:23 PM 40.7111 -111.9914 75° East 168 193 6,400 -1,377 Descending Salt Lake Center
Fri 08:18:46 PM 40.7228 -111.9908 North 136 157 5,800 -1,258 Descending Salt Lake Center
Fri 08:19:25 PM 40.7464 -111.9919 358° North 127 146 5,100 -1,100 Descending Salt Lake Center
Fri 08:19:46 PM 40.7581 -111.9958 346° North 125 144 4,700 -787 Descending Salt Lake Center
Fri 08:20:26 PM 40.7803 -111.9958 360° North 123 142 4,300 -600 Descending Salt Lake Center
Fri 08:22:00 PM 40.7833 -111.9667 146° Southeast  Level FlightAware Approximate

Login

Don't have an account? Register now (free) for customized features, flight alerts, and more!